Time;durP1;ratioP1;P1;durP2;ratioP2;P2;SDS_P1;SDS_P2;PMS_P1;PMS_P2;Temp;Humidity;BMP_temperature;BMP_pressure;BME280_temperature;BME280_humidity;BME280_pressure;Samples;Min_cycle;Max_cycle;Signal;HPM_P1;HPM_P2
2021/03/27 00:00:25;;;;;;;13.85;8.18;;;;;;;;;;5054763;28;20351;-81
2021/03/27 00:02:54;;;;;;;16.50;8.73;;;;;;;;;;5057316;28;20343;-81
2021/03/27 00:05:25;;;;;;;13.88;8.07;;;;;;;;;;5056876;28;20057;-81
2021/03/27 00:08:06;;;;;;;14.90;8.80;;;;;;;;;;5054577;28;20052;-82
2021/03/27 00:10:47;;;;;;;14.43;8.65;;;;;;;;;;5056170;28;20055;-81
2021/03/27 00:13:23;;;;;;;17.13;8.35;;;;;;;;;;5056020;28;20064;-81
2021/03/27 00:15:53;;;;;;;16.70;8.50;;;;;;;;;;5055217;28;20060;-81
2021/03/27 00:18:46;;;;;;;12.77;8.27;;;;;;;;;;5056181;28;20049;-81
2021/03/27 00:21:18;;;;;;;12.93;7.72;;;;;;;;;;5050240;28;20373;-81
2021/03/27 00:23:43;;;;;;;14.15;7.68;;;;;;;;;;5055223;28;20485;-82
2021/03/27 00:26:15;;;;;;;18.95;7.95;;;;;;;;;;5055249;28;20056;-81
2021/03/27 00:28:45;;;;;;;13.80;7.80;;;;;;;;;;5055535;28;20249;-81
2021/03/27 00:31:16;;;;;;;16.77;7.90;;;;;;;;;;5055072;28;20332;-81
2021/03/27 00:33:46;;;;;;;13.15;8.07;;;;;;;;;;5056394;28;20056;-81
2021/03/27 00:36:35;;;;;;;14.07;7.15;;;;;;;;;;5056264;28;20067;-81
2021/03/27 00:39:21;;;;;;;13.52;7.97;;;;;;;;;;5057350;28;20057;-81
2021/03/27 00:41:55;;;;;;;13.85;8.20;;;;;;;;;;5057660;28;20061;-81
2021/03/27 00:44:24;;;;;;;;;;;;;;;;;;5057798;28;20401;-82
2021/03/27 00:46:50;;;;;;;14.02;7.30;;;;;;;;;;5056269;28;19909;-81
2021/03/27 00:49:20;;;;;;;9.18;6.97;;;;;;;;;;5055147;28;20049;-81
2021/03/27 00:51:51;;;;;;;12.00;7.15;;;;;;;;;;5055939;28;20088;-81
2021/03/27 00:54:26;;;;;;;13.95;7.53;;;;;;;;;;5057473;28;20045;-81
2021/03/27 00:57:06;;;;;;;13.90;7.53;;;;;;;;;;5056630;28;20136;-82
2021/03/27 00:59:41;;;;;;;14.95;6.80;;;;;;;;;;5056438;28;20099;-82
2021/03/27 01:02:12;;;;;;;13.48;6.85;;;;;;;;;;5057289;28;20033;-81
2021/03/27 01:04:51;;;;;;;12.35;7.53;;;;;;;;;;5055411;28;20354;-81
2021/03/27 01:07:20;;;;;;;12.43;6.97;;;;;;;;;;5055822;28;20055;-81
2021/03/27 01:10:07;;;;;;;12.77;6.85;;;;;;;;;;5056802;28;20052;-82
2021/03/27 01:12:35;;;;;;;11.05;6.75;;;;;;;;;;5055632;28;20164;-81
2021/03/27 01:15:05;;;;;;;9.77;5.93;;;;;;;;;;5053861;28;20505;-81
2021/03/27 01:17:33;;;;;;;11.00;6.07;;;;;;;;;;5055755;28;20044;-81
2021/03/27 01:20:06;;;;;;;12.68;6.70;;;;;;;;;;5055532;28;20084;-81
2021/03/27 01:22:33;;;;;;;10.57;6.25;;;;;;;;;;5056051;28;20344;-81
2021/03/27 01:25:04;;;;;;;11.35;6.32;;;;;;;;;;5072102;28;20071;-81
2021/03/27 01:27:33;;;;;;;11.30;6.32;;;;;;;;;;5056392;28;20578;-81
2021/03/27 01:30:11;;;;;;;13.10;6.47;;;;;;;;;;5054993;28;20320;-81
2021/03/27 01:32:46;;;;;;;9.68;5.88;;;;;;;;;;5055845;28;20056;-81
2021/03/27 01:35:13;;;;;;;;;;;;;;;;;;5057776;28;20389;-81
2021/03/27 01:37:44;;;;;;;11.95;6.35;;;;;;;;;;5057228;28;19931;-81
2021/03/27 01:40:19;;;;;;;12.80;6.95;;;;;;;;;;5057492;28;20371;-81
2021/03/27 01:43:01;;;;;;;16.00;6.90;;;;;;;;;;5060941;28;20084;-81
2021/03/27 01:45:36;;;;;;;13.68;7.05;;;;;;;;;;5061232;28;20139;-81
2021/03/27 01:48:06;;;;;;;13.18;6.22;;;;;;;;;;5061513;28;20059;-81
2021/03/27 01:50:39;;;;;;;11.73;6.00;;;;;;;;;;5059616;28;20404;-81
2021/03/27 01:53:05;;;;;;;11.38;6.72;;;;;;;;;;5067652;28;20049;-81
2021/03/27 01:55:37;;;;;;;10.57;5.40;;;;;;;;;;5068681;28;20063;-81
2021/03/27 01:58:20;;;;;;;9.65;6.22;;;;;;;;;;5064363;28;20049;-81
2021/03/27 02:00:49;;;;;;;10.63;5.85;;;;;;;;;;5061183;28;20420;-81
2021/03/27 02:03:24;;;;;;;9.75;6.07;;;;;;;;;;5060459;28;20053;-81
2021/03/27 02:05:59;;;;;;;9.68;5.93;;;;;;;;;;5061747;28;20285;-81
2021/03/27 02:08:32;;;;;;;16.17;6.10;;;;;;;;;;5064836;28;20072;-81
2021/03/27 02:11:03;;;;;;;12.77;6.68;;;;;;;;;;5071506;28;20049;-81
2021/03/27 02:13:50;;;;;;;11.95;5.75;;;;;;;;;;5073147;28;20049;-81
2021/03/27 02:16:17;;;;;;;10.52;5.95;;;;;;;;;;5071492;28;20049;-81
2021/03/27 02:19:18;;;;;;;14.98;7.18;;;;;;;;;;5068195;28;20074;-81
2021/03/27 02:21:53;;;;;;;14.05;5.78;;;;;;;;;;5070390;28;20185;-79
2021/03/27 02:24:19;;;;;;;12.43;6.45;;;;;;;;;;5070586;28;20128;-79
2021/03/27 02:26:53;;;;;;;8.38;4.60;;;;;;;;;;5070024;28;20069;-79
2021/03/27 02:29:38;;;;;;;6.20;4.00;;;;;;;;;;5066715;28;20104;-79
2021/03/27 02:32:04;;;;;;;6.05;4.10;;;;;;;;;;5070682;28;20045;-79
2021/03/27 02:34:38;;;;;;;4.30;3.85;;;;;;;;;;5077545;28;20067;-79
2021/03/27 02:37:07;;;;;;;6.90;4.97;;;;;;;;;;5076510;28;20037;-81
2021/03/27 02:39:58;;;;;;;5.70;4.75;;;;;;;;;;5077070;28;20053;-81
2021/03/27 02:42:23;;;;;;;7.63;5.10;;;;;;;;;;5067353;28;20313;-81
2021/03/27 02:44:52;;;;;;;7.43;4.53;;;;;;;;;;5066698;28;20055;-85
2021/03/27 02:47:38;;;;;;;12.40;4.03;;;;;;;;;;5076298;28;20060;-85
2021/03/27 02:50:04;;;;;;;6.63;4.22;;;;;;;;;;5064416;28;20091;-85
2021/03/27 02:52:53;;;;;;;3.90;3.20;;;;;;;;;;5060017;28;20048;-85
2021/03/27 02:55:19;;;;;;;4.75;3.22;;;;;;;;;;5060981;28;20125;-85
2021/03/27 02:58:04;;;;;;;4.70;2.75;;;;;;;;;;5062612;28;20048;-85
2021/03/27 03:00:45;;;;;;;1.77;1.55;;;;;;;;;;5059989;28;20049;-85
2021/03/27 03:03:14;;;;;;;2.67;1.50;;;;;;;;;;5060875;28;20045;-85
2021/03/27 03:05:45;;;;;;;1.95;1.30;;;;;;;;;;5060957;28;20053;-85
2021/03/27 03:08:11;;;;;;;4.20;1.70;;;;;;;;;;5060830;28;20402;-85
2021/03/27 03:10:47;;;;;;;1.85;1.60;;;;;;;;;;5059054;28;20052;-85
2021/03/27 03:13:13;;;;;;;2.95;1.30;;;;;;;;;;5058877;28;20045;-85
2021/03/27 03:15:46;;;;;;;1.90;1.48;;;;;;;;;;5057826;28;20304;-85
2021/03/27 03:18:21;;;;;;;2.13;1.40;;;;;;;;;;5060450;28;20041;-85
2021/03/27 03:20:52;;;;;;;2.78;1.25;;;;;;;;;;5058879;28;20181;-85
2021/03/27 03:23:24;;;;;;;2.20;1.42;;;;;;;;;;5057436;28;20082;-85
2021/03/27 03:25:58;;;;;;;3.25;1.52;;;;;;;;;;5058702;28;20345;-84
2021/03/27 03:28:29;;;;;;;5.00;2.17;;;;;;;;;;5060415;28;20057;-84
2021/03/27 03:31:24;;;;;;;4.63;2.38;;;;;;;;;;5068118;28;20063;-84
2021/03/27 03:33:50;;;;;;;5.35;3.00;;;;;;;;;;5064100;28;20057;-85
2021/03/27 03:36:35;;;;;;;4.13;3.10;;;;;;;;;;5070063;28;20088;-86
2021/03/27 03:39:04;;;;;;;4.13;2.92;;;;;;;;;;5064477;28;20049;-85
2021/03/27 03:41:30;;;;;;;4.32;2.85;;;;;;;;;;5061670;28;20044;-86
2021/03/27 03:44:07;;;;;;;6.90;3.60;;;;;;;;;;5059332;28;20056;-86
2021/03/27 03:46:39;;;;;;;4.47;3.17;;;;;;;;;;5061631;28;20119;-86
2021/03/27 03:49:27;;;;;;;4.88;3.58;;;;;;;;;;5059648;28;20128;-85
2021/03/27 03:51:56;;;;;;;4.85;3.90;;;;;;;;;;5060802;28;20060;-85
2021/03/27 03:54:33;;;;;;;5.43;3.85;;;;;;;;;;5064216;28;20052;-85
2021/03/27 03:57:05;;;;;;;4.53;3.40;;;;;;;;;;5068618;28;20409;-86
2021/03/27 03:59:47;;;;;;;5.00;3.55;;;;;;;;;;5061410;28;20067;-86
2021/03/27 04:02:33;;;;;;;6.40;3.88;;;;;;;;;;5059784;28;20045;-86
2021/03/27 04:05:00;;;;;;;;;;;;;;;;;;5057348;28;20067;-85
2021/03/27 04:07:30;;;;;;;7.57;4.43;;;;;;;;;;5058844;28;19920;-85
2021/03/27 04:09:58;;;;;;;8.15;4.70;;;;;;;;;;5058692;28;20148;-85
2021/03/27 04:12:34;;;;;;;6.63;5.05;;;;;;;;;;5058512;28;20075;-86
2021/03/27 04:15:17;;;;;;;8.13;5.47;;;;;;;;;;5057725;28;20106;-86
2021/03/27 04:17:56;;;;;;;11.40;6.03;;;;;;;;;;5061141;28;20424;-85
2021/03/27 04:20:47;;;;;;;11.30;7.45;;;;;;;;;;5065033;28;20052;-86
2021/03/27 04:23:13;;;;;;;12.05;7.32;;;;;;;;;;5061503;28;20132;-85
2021/03/27 04:25:47;;;;;;;10.48;7.20;;;;;;;;;;5059462;28;20117;-85
2021/03/27 04:28:18;;;;;;;10.75;7.88;;;;;;;;;;5056995;28;20056;-85
2021/03/27 04:31:08;;;;;;;11.07;7.97;;;;;;;;;;5058088;28;20119;-86
2021/03/27 04:33:37;;;;;;;12.32;7.68;;;;;;;;;;5029738;28;20099;-86
2021/03/27 04:36:21;;;;;;;11.68;8.00;;;;;;;;;;5058949;28;20076;-85
2021/03/27 04:39:00;;;;;;;9.60;7.70;;;;;;;;;;5058147;28;20118;-85
2021/03/27 04:41:38;;;;;;;16.38;7.55;;;;;;;;;;5057424;28;20336;-86
2021/03/27 04:44:08;;;;;;;11.63;7.72;;;;;;;;;;5057968;28;20053;-85
2021/03/27 04:46:41;;;;;;;11.73;7.70;;;;;;;;;;5058296;28;20063;-87
2021/03/27 04:49:16;;;;;;;12.68;9.68;;;;;;;;;;5057018;28;20061;-85
2021/03/27 04:51:45;;;;;;;18.45;10.77;;;;;;;;;;5056043;28;20070;-85
2021/03/27 04:54:12;;;;;;;19.02;9.90;;;;;;;;;;5054853;28;20143;-85
2021/03/27 04:56:57;;;;;;;14.05;9.40;;;;;;;;;;5055592;28;20301;-85
2021/03/27 04:59:41;;;;;;;11.85;8.00;;;;;;;;;;5055939;28;20045;-86
2021/03/27 05:02:15;;;;;;;11.80;8.70;;;;;;;;;;5056236;28;20377;-86
2021/03/27 05:05:00;;;;;;;12.77;7.57;;;;;;;;;;5056771;28;20045;-86
2021/03/27 05:07:45;;;;;;;9.40;6.57;;;;;;;;;;5057951;28;20118;-85
2021/03/27 05:10:11;;;;;;;14.32;6.90;;;;;;;;;;5055909;28;20358;-85
2021/03/27 05:12:50;;;;;;;10.75;7.25;;;;;;;;;;5058419;28;20060;-85
2021/03/27 05:15:26;;;;;;;9.60;7.32;;;;;;;;;;5037468;28;20050;-86
2021/03/27 05:18:01;;;;;;;12.75;7.53;;;;;;;;;;5037180;28;20413;-85
2021/03/27 05:20:31;;;;;;;11.38;8.82;;;;;;;;;;5036963;28;20144;-87
2021/03/27 05:23:08;;;;;;;27.70;9.05;;;;;;;;;;5035420;28;20064;-86
2021/03/27 05:25:44;;;;;;;13.75;8.30;;;;;;;;;;5036364;28;20080;-86
2021/03/27 05:28:29;;;;;;;13.75;7.85;;;;;;;;;;5056713;28;20333;-86
2021/03/27 05:30:58;;;;;;;15.00;9.77;;;;;;;;;;5036196;28;20064;-86
2021/03/27 05:33:31;;;;;;;24.38;10.13;;;;;;;;;;5051543;28;20060;-87
2021/03/27 05:36:05;;;;;;;13.52;9.38;;;;;;;;;;5037989;28;20143;-86
2021/03/27 05:38:50;;;;;;;14.50;10.20;;;;;;;;;;5039948;28;20049;-87
2021/03/27 05:41:28;;;;;;;18.25;11.93;;;;;;;;;;5067824;28;20048;-86
2021/03/27 05:44:18;;;;;;;16.52;9.98;;;;;;;;;;5060440;28;20041;-86
2021/03/27 05:46:50;;;;;;;16.23;10.75;;;;;;;;;;5017014;28;20049;-86
2021/03/27 05:49:22;;;;;;;22.45;12.38;;;;;;;;;;5040246;28;20045;-86
2021/03/27 05:51:59;;;;;;;17.83;10.60;;;;;;;;;;5049235;28;20136;-86
2021/03/27 05:54:41;;;;;;;21.90;11.02;;;;;;;;;;5058112;28;20405;-86
2021/03/27 05:57:10;;;;;;;14.90;10.55;;;;;;;;;;5047235;28;20456;-86
2021/03/27 05:59:55;;;;;;;18.95;12.35;;;;;;;;;;5034806;28;20053;-85
2021/03/27 06:02:57;;;;;;;18.00;10.85;;;;;;;;;;5064757;28;20059;-85
2021/03/27 06:05:26;;;;;;;17.00;11.23;;;;;;;;;;5018925;28;20057;-85
2021/03/27 06:08:07;;;;;;;20.35;11.70;;;;;;;;;;5028512;28;20396;-85
2021/03/27 06:10:58;;;;;;;27.13;12.07;;;;;;;;;;5048135;28;20057;-85
2021/03/27 06:13:49;;;;;;;18.25;10.48;;;;;;;;;;5035345;28;20049;-85
2021/03/27 06:16:34;;;;;;;20.15;11.50;;;;;;;;;;5047883;28;20057;-85
2021/03/27 06:19:28;;;;;;;19.65;11.95;;;;;;;;;;5031573;28;20128;-85
2021/03/27 06:22:08;;;;;;;19.10;10.63;;;;;;;;;;5032518;28;20131;-84
2021/03/27 06:24:42;;;;;;;23.77;11.15;;;;;;;;;;5032805;28;20115;-84
2021/03/27 06:27:21;;;;;;;20.05;12.10;;;;;;;;;;5034689;28;20140;-84
2021/03/27 06:29:55;;;;;;;19.98;11.85;;;;;;;;;;5037931;28;20333;-84
2021/03/27 06:32:27;;;;;;;16.70;10.48;;;;;;;;;;5037269;28;20432;-84
2021/03/27 06:34:57;;;;;;;19.02;9.57;;;;;;;;;;5038608;28;20056;-84
2021/03/27 06:37:34;;;;;;;16.60;9.88;;;;;;;;;;5037852;28;20045;-84
2021/03/27 06:40:10;;;;;;;14.27;8.90;;;;;;;;;;5037357;28;20336;-83
2021/03/27 06:42:42;;;;;;;19.23;9.27;;;;;;;;;;5037317;28;20045;-84
2021/03/27 06:45:20;;;;;;;24.13;9.93;;;;;;;;;;5039409;28;20942;-84
2021/03/27 06:47:47;;;;;;;19.10;7.75;;;;;;;;;;5038643;28;20135;-84
2021/03/27 06:50:33;;;;;;;22.85;9.88;;;;;;;;;;5036742;28;20095;-84
2021/03/27 06:53:18;;;;;;;15.68;7.85;;;;;;;;;;5036691;28;20403;-84
2021/03/27 06:56:05;;;;;;;14.70;6.70;;;;;;;;;;5050266;28;20044;-84
2021/03/27 06:58:47;;;;;;;14.13;7.03;;;;;;;;;;5056425;28;20467;-84
2021/03/27 07:01:33;;;;;;;14.02;6.50;;;;;;;;;;5054056;28;20088;-83
2021/03/27 07:04:18;;;;;;;16.77;6.53;;;;;;;;;;5055138;28;20123;-83
2021/03/27 07:06:59;;;;;;;13.48;5.95;;;;;;;;;;5055882;28;20049;-84
2021/03/27 07:09:47;;;;;;;14.98;5.95;;;;;;;;;;5054903;28;20048;-82
2021/03/27 07:12:33;;;;;;;12.93;6.38;;;;;;;;;;5055200;28;20053;-83
2021/03/27 07:15:18;;;;;;;18.55;6.25;;;;;;;;;;5056065;28;20162;-82
2021/03/27 07:17:47;;;;;;;11.57;5.60;;;;;;;;;;5053906;28;20440;-82
2021/03/27 07:20:32;;;;;;;13.73;6.32;;;;;;;;;;5054116;28;20436;-83
2021/03/27 07:23:00;;;;;;;12.57;5.75;;;;;;;;;;5053561;28;20045;-82
2021/03/27 07:25:46;;;;;;;14.65;5.97;;;;;;;;;;5054539;28;20067;-83
2021/03/27 07:28:38;;;;;;;11.73;5.80;;;;;;;;;;5057474;28;20033;-83
2021/03/27 07:31:07;;;;;;;14.00;6.20;;;;;;;;;;5061708;28;20143;-84
2021/03/27 07:33:52;;;;;;;15.20;6.68;;;;;;;;;;5060549;28;20049;-83
2021/03/27 07:36:40;;;;;;;16.90;7.95;;;;;;;;;;5053543;28;20044;-83
2021/03/27 07:39:25;;;;;;;12.60;7.28;;;;;;;;;;5052583;28;20217;-83
2021/03/27 07:42:09;;;;;;;13.20;6.93;;;;;;;;;;5063273;28;20045;-82
2021/03/27 07:44:38;;;;;;;17.10;7.97;;;;;;;;;;5065228;28;20105;-83
2021/03/27 07:47:19;;;;;;;13.27;7.15;;;;;;;;;;5064207;28;20068;-82
2021/03/27 07:49:54;;;;;;;12.07;6.97;;;;;;;;;;5054402;28;20300;-82
2021/03/27 07:52:26;;;;;;;9.70;6.40;;;;;;;;;;5051177;28;20095;-82
2021/03/27 07:55:17;;;;;;;17.83;8.45;;;;;;;;;;5049693;28;20072;-83
2021/03/27 07:57:55;;;;;;;11.82;7.50;;;;;;;;;;5050684;28;20119;-82
2021/03/27 08:00:39;;;;;;;11.35;6.63;;;;;;;;;;5038983;28;20053;-82
2021/03/27 08:03:08;;;;;;;13.15;7.50;;;;;;;;;;5030861;28;20046;-82
2021/03/27 08:05:57;;;;;;;17.35;6.90;;;;;;;;;;5032131;28;20113;-82
2021/03/27 08:08:23;;;;;;;13.93;6.97;;;;;;;;;;5031505;28;20127;-82
2021/03/27 08:10:53;;;;;;;10.52;5.63;;;;;;;;;;5032826;28;20148;-82
2021/03/27 08:13:40;;;;;;;12.48;5.47;;;;;;;;;;5047433;28;20087;-82
2021/03/27 08:16:18;;;;;;;8.73;5.90;;;;;;;;;;5049080;28;20057;-82
2021/03/27 08:18:48;;;;;;;13.30;6.00;;;;;;;;;;5036177;28;20107;-82
2021/03/27 08:21:32;;;;;;;15.27;6.35;;;;;;;;;;5027613;28;20080;-82
2021/03/27 08:24:16;;;;;;;16.85;7.00;;;;;;;;;;5040927;28;20371;-82
2021/03/27 08:26:50;;;;;;;26.85;7.55;;;;;;;;;;5048966;28;20055;-82
2021/03/27 08:29:28;;;;;;;17.90;6.22;;;;;;;;;;5054024;28;20108;-82
2021/03/27 08:32:28;;;;;;;16.55;7.18;;;;;;;;;;5062395;28;20049;-82
2021/03/27 08:35:06;;;;;;;15.68;6.32;;;;;;;;;;5057745;28;20343;-82
2021/03/27 08:38:07;;;;;;;14.35;5.28;;;;;;;;;;5060954;28;20096;-81
2021/03/27 08:40:40;;;;;;;12.82;6.68;;;;;;;;;;5049159;28;20242;-82
2021/03/27 08:43:21;;;;;;;13.88;5.85;;;;;;;;;;5053303;28;20110;-83
2021/03/27 08:46:08;;;;;;;9.57;5.22;;;;;;;;;;5055008;28;20132;-83
2021/03/27 08:48:37;;;;;;;14.95;3.78;;;;;;;;;;5047647;28;20460;-83
2021/03/27 08:51:27;;;;;;;6.78;3.72;;;;;;;;;;5044518;28;20225;-83
2021/03/27 08:54:14;;;;;;;13.98;4.40;;;;;;;;;;5025818;28;20475;-81
2021/03/27 08:56:47;;;;;;;7.97;3.95;;;;;;;;;;5031555;28;20216;-83
2021/03/27 08:59:32;;;;;;;9.27;3.20;;;;;;;;;;5032881;28;20100;-82
2021/03/27 09:02:04;;;;;;;15.20;3.17;;;;;;;;;;5061785;28;20165;-83
2021/03/27 09:04:44;;;;;;;14.65;2.75;;;;;;;;;;5068879;28;20532;-82
2021/03/27 09:07:30;;;;;;;9.40;2.83;;;;;;;;;;5048467;28;20111;-81
2021/03/27 09:10:06;;;;;;;6.95;2.78;;;;;;;;;;5063449;28;20060;-81
2021/03/27 09:12:34;;;;;;;4.65;2.75;;;;;;;;;;5041372;28;20080;-81
2021/03/27 09:15:06;;;;;;;12.40;3.45;;;;;;;;;;5034089;28;20125;-81
2021/03/27 09:17:52;;;;;;;11.48;2.97;;;;;;;;;;5035442;28;20193;-82
2021/03/27 09:20:25;;;;;;;8.32;2.85;;;;;;;;;;5042522;28;20049;-82
2021/03/27 09:23:01;;;;;;;9.50;2.97;;;;;;;;;;5029144;28;20119;-82
2021/03/27 09:25:32;;;;;;;6.50;2.58;;;;;;;;;;5026316;28;20216;-82
2021/03/27 09:28:18;;;;;;;8.48;1.95;;;;;;;;;;5026681;28;20346;-82
2021/03/27 09:31:07;;;;;;;12.52;2.97;;;;;;;;;;5025018;28;20045;-83
2021/03/27 09:33:42;;;;;;;10.55;1.92;;;;;;;;;;5025428;28;20619;-82
2021/03/27 09:36:14;;;;;;;11.88;1.90;;;;;;;;;;5024298;28;20053;-82
2021/03/27 09:38:53;;;;;;;10.85;1.92;;;;;;;;;;5024043;28;20045;-82
2021/03/27 09:41:40;;;;;;;13.95;2.30;;;;;;;;;;5029236;28;20120;-82
2021/03/27 09:44:06;;;;;;;9.43;2.05;;;;;;;;;;5047778;28;20049;-81
2021/03/27 09:46:38;;;;;;;10.70;1.92;;;;;;;;;;5045605;28;20108;-82
2021/03/27 09:49:17;;;;;;;12.30;1.92;;;;;;;;;;5048443;28;20489;-83
2021/03/27 09:52:12;;;;;;;8.60;2.30;;;;;;;;;;5048430;28;20137;-81
2021/03/27 09:55:09;;;;;;;8.07;2.13;;;;;;;;;;5038526;28;20036;-81
2021/03/27 09:57:41;;;;;;;10.20;2.17;;;;;;;;;;5024011;28;20045;-81
2021/03/27 10:00:13;;;;;;;11.10;2.28;;;;;;;;;;5023821;28;20127;-81
2021/03/27 10:02:51;;;;;;;10.50;2.13;;;;;;;;;;5028204;28;20057;-81
2021/03/27 10:05:39;;;;;;;13.77;2.17;;;;;;;;;;5045049;28;20050;-81
2021/03/27 10:08:24;;;;;;;11.90;1.85;;;;;;;;;;5028122;28;20116;-82
2021/03/27 10:11:16;;;;;;;12.70;2.25;;;;;;;;;;5031826;28;20041;-82
2021/03/27 10:13:56;;;;;;;8.82;1.67;;;;;;;;;;5030454;28;20077;-81
2021/03/27 10:16:31;;;;;;;11.15;2.08;;;;;;;;;;5029247;28;20049;-81
2021/03/27 10:19:09;;;;;;;14.70;2.30;;;;;;;;;;5034566;28;20277;-82
2021/03/27 10:21:54;;;;;;;12.35;2.22;;;;;;;;;;5044142;28;20265;-81
2021/03/27 10:24:26;;;;;;;15.88;2.58;;;;;;;;;;5048260;28;20091;-82
2021/03/27 10:27:22;;;;;;;13.23;2.20;;;;;;;;;;5048434;28;20057;-82
2021/03/27 10:29:58;;;;;;;10.27;2.05;;;;;;;;;;5027759;28;20111;-82
2021/03/27 10:32:30;;;;;;;11.82;2.20;;;;;;;;;;5045522;28;20388;-82
2021/03/27 10:35:09;;;;;;;13.23;2.47;;;;;;;;;;5034255;28;20045;-82
2021/03/27 10:37:48;;;;;;;16.65;2.65;;;;;;;;;;5046837;28;20328;-81
2021/03/27 10:40:33;;;;;;;17.52;2.25;;;;;;;;;;5045852;28;20053;-82
2021/03/27 10:43:02;;;;;;;10.80;2.03;;;;;;;;;;5036638;28;20100;-82
2021/03/27 10:45:49;;;;;;;9.57;2.40;;;;;;;;;;5044834;28;20408;-82
2021/03/27 10:48:19;;;;;;;9.45;1.80;;;;;;;;;;5030014;28;20061;-83
2021/03/27 10:50:49;;;;;;;13.60;2.28;;;;;;;;;;5032789;28;20060;-82
2021/03/27 10:53:41;;;;;;;10.38;1.73;;;;;;;;;;5052323;28;20080;-82
2021/03/27 10:56:20;;;;;;;14.70;2.53;;;;;;;;;;5059077;28;20184;-83
2021/03/27 10:59:23;;;;;;;7.80;1.88;;;;;;;;;;5051944;28;20145;-82
2021/03/27 11:02:07;;;;;;;11.68;1.73;;;;;;;;;;5046355;28;20053;-81
2021/03/27 11:04:50;;;;;;;14.70;2.80;;;;;;;;;;5050970;28;20045;-81
2021/03/27 11:07:28;;;;;;;19.33;2.53;;;;;;;;;;5057415;28;20072;-81
2021/03/27 11:10:03;;;;;;;9.23;1.90;;;;;;;;;;5050904;28;20335;-80
2021/03/27 11:12:36;;;;;;;8.05;2.03;;;;;;;;;;5043860;28;20376;-82
2021/03/27 11:15:02;;;;;;;15.73;1.92;;;;;;;;;;5051178;28;20239;-82
2021/03/27 11:17:49;;;;;;;8.57;2.17;;;;;;;;;;5050143;28;20105;-84
2021/03/27 11:20:53;;;;;;;15.90;2.85;;;;;;;;;;5049951;28;20049;-83
2021/03/27 11:23:43;;;;;;;14.32;2.13;;;;;;;;;;4974940;28;20046;-82
2021/03/27 11:26:29;;;;;;;14.68;2.03;;;;;;;;;;4973659;28;20110;-82
2021/03/27 11:29:04;;;;;;;12.07;2.03;;;;;;;;;;5041585;28;20045;-82
2021/03/27 11:31:38;;;;;;;9.00;2.40;;;;;;;;;;5061538;28;20061;-82
2021/03/27 11:34:05;;;;;;;11.40;2.72;;;;;;;;;;5053853;28;20044;-82
2021/03/27 11:36:58;;;;;;;9.13;2.10;;;;;;;;;;5058223;28;20134;-82
2021/03/27 11:39:48;;;;;;;8.52;1.63;;;;;;;;;;5054074;28;20048;-81
2021/03/27 11:42:23;;;;;;;13.52;2.33;;;;;;;;;;5054165;28;20045;-81
2021/03/27 11:44:58;;;;;;;15.38;2.63;;;;;;;;;;5047128;28;20398;-81
2021/03/27 11:47:38;;;;;;;15.48;2.10;;;;;;;;;;5045313;28;20120;-80
2021/03/27 11:50:18;;;;;;;17.45;2.47;;;;;;;;;;5065102;28;20069;-81
2021/03/27 11:53:02;;;;;;;19.40;2.72;;;;;;;;;;5037304;28;20037;-81
2021/03/27 11:55:31;;;;;;;;;;;;;;;;;;5065286;28;20055;-82
2021/03/27 11:58:19;;;;;;;15.68;2.92;;;;;;;;;;5050533;28;20001;-82
2021/03/27 12:01:01;;;;;;;14.63;2.80;;;;;;;;;;5049794;28;20428;-82
2021/03/27 12:03:32;;;;;;;11.35;2.65;;;;;;;;;;5049500;28;20059;-82
2021/03/27 12:06:19;;;;;;;13.43;2.53;;;;;;;;;;5049453;28;20041;-82
2021/03/27 12:08:55;;;;;;;15.13;2.47;;;;;;;;;;5033263;28;20144;-82
2021/03/27 12:11:40;;;;;;;13.95;2.05;;;;;;;;;;5044858;28;20111;-81
2021/03/27 12:14:21;;;;;;;8.52;1.85;;;;;;;;;;5045976;28;20052;-82
2021/03/27 12:17:05;;;;;;;4.07;1.35;;;;;;;;;;5045786;28;20365;-82
2021/03/27 12:19:34;;;;;;;9.07;1.75;;;;;;;;;;5044733;28;20055;-82
2021/03/27 12:22:09;;;;;;;8.18;1.42;;;;;;;;;;5048739;28;20037;-82
2021/03/27 12:24:54;;;;;;;7.22;1.38;;;;;;;;;;5051172;28;20053;-82
2021/03/27 12:27:37;;;;;;;9.70;1.83;;;;;;;;;;5046963;28;20148;-82
2021/03/27 12:30:19;;;;;;;12.02;2.22;;;;;;;;;;5068692;28;20036;-81
2021/03/27 12:33:06;;;;;;;8.20;1.73;;;;;;;;;;5086364;28;20071;-82
2021/03/27 12:35:34;;;;;;;9.25;1.75;;;;;;;;;;5070365;28;20287;-82
2021/03/27 12:38:06;;;;;;;8.57;1.52;;;;;;;;;;5062476;28;20056;-80
2021/03/27 12:40:42;;;;;;;5.82;1.00;;;;;;;;;;5052170;28;20044;-81
2021/03/27 12:43:22;;;;;;;9.20;1.40;;;;;;;;;;5051492;28;20041;-82
2021/03/27 12:46:08;;;;;;;6.88;1.67;;;;;;;;;;5070088;28;20063;-80
2021/03/27 12:48:53;;;;;;;5.27;1.50;;;;;;;;;;5076864;28;20051;-81
2021/03/27 12:51:42;;;;;;;7.65;1.48;;;;;;;;;;5090272;28;20036;-81
2021/03/27 12:54:15;;;;;;;12.32;2.00;;;;;;;;;;5069934;28;20079;-81
2021/03/27 12:57:00;;;;;;;6.75;1.58;;;;;;;;;;5049736;28;20139;-81
2021/03/27 12:59:33;;;;;;;8.63;2.15;;;;;;;;;;5032650;28;20132;-80
2021/03/27 13:02:02;;;;;;;6.57;1.70;;;;;;;;;;5042637;28;20317;-80
2021/03/27 13:04:50;;;;;;;9.25;2.13;;;;;;;;;;5051801;28;20048;-81
2021/03/27 13:07:34;;;;;;;5.55;1.48;;;;;;;;;;5050586;28;20152;-81
2021/03/27 13:10:05;;;;;;;5.97;1.20;;;;;;;;;;5051536;28;20057;-82
2021/03/27 13:12:50;;;;;;;4.30;1.48;;;;;;;;;;5049905;28;20055;-83
2021/03/27 13:15:24;;;;;;;3.47;1.08;;;;;;;;;;5048745;28;20292;-82
2021/03/27 13:18:16;;;;;;;4.43;1.00;;;;;;;;;;5045170;28;20045;-82
2021/03/27 13:20:56;;;;;;;6.55;0.80;;;;;;;;;;5028712;28;20053;-81
2021/03/27 13:23:28;;;;;;;4.93;1.00;;;;;;;;;;5048975;28;21354;-81
2021/03/27 13:25:58;;;;;;;6.70;1.20;;;;;;;;;;5051145;28;20049;-81
2021/03/27 13:28:27;;;;;;;4.22;1.00;;;;;;;;;;5033328;28;20561;-81
2021/03/27 13:31:15;;;;;;;5.07;1.25;;;;;;;;;;5029718;28;20167;-82
2021/03/27 13:33:53;;;;;;;6.85;1.60;;;;;;;;;;5029995;28;20057;-82
2021/03/27 13:39:44;;;;;;;5.50;1.20;;;;;;;;;;5041096;28;20056;-82
2021/03/27 13:42:10;;;;;;;6.78;1.30;;;;;;;;;;5053431;28;20467;-83
2021/03/27 13:44:45;;;;;;;6.57;1.60;;;;;;;;;;5056002;28;20136;-82
2021/03/27 13:47:30;;;;;;;7.87;1.47;;;;;;;;;;5046029;28;20053;-82
2021/03/27 13:50:26;;;;;;;11.15;1.58;;;;;;;;;;5055111;28;20053;-81
2021/03/27 13:53:04;;;;;;;7.53;1.85;;;;;;;;;;5043730;28;20407;-82
2021/03/27 13:55:52;;;;;;;10.10;1.80;;;;;;;;;;5051783;28;20373;-82
2021/03/27 13:58:21;;;;;;;11.30;1.58;;;;;;;;;;5054647;28;20067;-82
2021/03/27 14:01:01;;;;;;;9.23;1.33;;;;;;;;;;5053020;28;20055;-82
2021/03/27 14:03:49;;;;;;;9.98;1.30;;;;;;;;;;5059191;28;20045;-82
2021/03/27 14:06:19;;;;;;;8.45;1.25;;;;;;;;;;5059333;28;20114;-83
2021/03/27 14:09:05;;;;;;;6.75;1.58;;;;;;;;;;5057768;28;20049;-83
2021/03/27 14:11:54;;;;;;;7.95;1.35;;;;;;;;;;5053758;28;20076;-82
2021/03/27 14:14:27;;;;;;;11.57;1.63;;;;;;;;;;5031606;28;20112;-82
2021/03/27 14:17:02;;;;;;;3.90;0.98;;;;;;;;;;5030910;28;20081;-81
2021/03/27 14:19:48;;;;;;;4.10;1.13;;;;;;;;;;5038516;28;20135;-82
2021/03/27 14:22:16;;;;;;;5.47;1.50;;;;;;;;;;5033410;28;20041;-82
2021/03/27 14:25:11;;;;;;;5.35;1.05;;;;;;;;;;5035080;28;20099;-82
2021/03/27 14:27:59;;;;;;;8.68;1.38;;;;;;;;;;5032880;28;20072;-82
2021/03/27 14:30:24;;;;;;;4.35;0.80;;;;;;;;;;5043701;28;20162;-82
2021/03/27 14:32:57;;;;;;;3.95;0.98;;;;;;;;;;5047800;28;20049;-81
2021/03/27 14:35:45;;;;;;;4.60;1.20;;;;;;;;;;5031636;28;20045;-81
2021/03/27 14:38:39;;;;;;;3.70;1.40;;;;;;;;;;5046923;28;20419;-81
2021/03/27 14:41:40;;;;;;;3.25;1.17;;;;;;;;;;5009475;28;20046;-81
2021/03/27 14:44:28;;;;;;;4.57;1.45;;;;;;;;;;4989427;28;20132;-80
2021/03/27 14:47:00;;;;;;;1.08;0.80;;;;;;;;;;5031281;28;20053;-81
2021/03/27 14:49:39;;;;;;;5.47;1.05;;;;;;;;;;5058915;28;20086;-80
2021/03/27 14:52:14;;;;;;;4.60;0.80;;;;;;;;;;5069598;28;20113;-80
2021/03/27 14:54:53;;;;;;;2.28;0.90;;;;;;;;;;5058988;28;20060;-80
2021/03/27 14:57:22;;;;;;;3.80;1.10;;;;;;;;;;5050305;28;20056;-82
2021/03/27 14:59:56;;;;;;;4.18;0.90;;;;;;;;;;5049453;28;20098;-80
2021/03/27 15:02:35;;;;;;;2.95;0.80;;;;;;;;;;5050714;28;20059;-80
2021/03/27 15:05:21;;;;;;;4.82;1.15;;;;;;;;;;5029994;28;20048;-80
2021/03/27 15:07:58;;;;;;;5.03;1.23;;;;;;;;;;5028312;28;20045;-80
2021/03/27 15:10:37;;;;;;;2.55;1.05;;;;;;;;;;5028998;28;20272;-80
2021/03/27 15:13:34;;;;;;;4.20;0.95;;;;;;;;;;5029668;28;20053;-81
2021/03/27 15:16:01;;;;;;;;;;;;;;;;;;5038168;28;20124;-81
2021/03/27 15:18:53;;;;;;;4.40;1.10;;;;;;;;;;5047493;28;20300;-81
2021/03/27 15:21:20;;;;;;;7.20;1.50;;;;;;;;;;5032629;28;20265;-81
2021/03/27 15:23:51;;;;;;;3.83;1.25;;;;;;;;;;5064790;28;20109;-83
2021/03/27 15:29:15;;;;;;;10.90;1.58;;;;;;;;;;5059959;28;20049;-81
2021/03/27 15:31:48;;;;;;;4.22;1.23;;;;;;;;;;5042505;28;20094;-81
2021/03/27 15:34:23;;;;;;;5.72;1.50;;;;;;;;;;5040374;28;20155;-80
2021/03/27 15:36:58;;;;;;;5.53;1.55;;;;;;;;;;5057815;28;20278;-81
2021/03/27 15:39:36;;;;;;;8.30;1.92;;;;;;;;;;5045327;28;20126;-81
2021/03/27 15:42:06;;;;;;;9.02;1.90;;;;;;;;;;5029311;28;20219;-81
2021/03/27 15:44:39;;;;;;;7.55;1.63;;;;;;;;;;5040537;28;20220;-80